Grove, United Kingdom
Current Conditions -  °F | °C
As of 10:50 PM on Friday 28 Nov 2014 (Local Time) from EGVN Reporting Station
Light Rain Light Rain  
Wind Chill: 50°   Ceiling: 6000
Heat Index: 50°   Visibility: 4mi
Dew Point: 48°   Wind: 9mph
Humidity: 94%   Direction: 60°ENE
Pressure: 29.71"   Gusts: NA
Location:  51.61°N, 1.42°W
Report Text: EGVN 282250Z 06008KT 7000 -RA OVC060 10/09 Q1006 WHT NOSIG
Loading
Personal Weather Stations






























Interactive Weather Map New forecast layout! Learn more

10-Day Weather Forecast

Advertisements
Track Severe Weather on mobile